sensor_id;sensor_type;location;lat;lon;timestamp;pressure;altitude;pressure_sealevel;temperature;humidity
61761;BME280;47664;51.660;-0.100;2023-02-21T00:00:48;101445.80;;;8.44;64.03
61761;BME280;47664;51.660;-0.100;2023-02-21T00:03:20;101446.97;;;8.67;63.54
61761;BME280;47664;51.660;-0.100;2023-02-21T00:05:52;101446.78;;;8.82;64.71
61761;BME280;47664;51.660;-0.100;2023-02-21T00:08:25;101445.35;;;8.43;66.05
61761;BME280;47664;51.660;-0.100;2023-02-21T00:10:57;101450.71;;;8.56;65.85
61761;BME280;47664;51.660;-0.100;2023-02-21T00:13:29;101449.88;;;8.39;65.87
61761;BME280;47664;51.660;-0.100;2023-02-21T00:16:02;101445.98;;;8.41;65.89
61761;BME280;47664;51.660;-0.100;2023-02-21T00:18:38;101446.38;;;8.13;65.93
61761;BME280;47664;51.660;-0.100;2023-02-21T00:21:10;101446.57;;;8.31;65.61
61761;BME280;47664;51.660;-0.100;2023-02-21T00:23:42;101447.84;;;8.88;64.79
61761;BME280;47664;51.660;-0.100;2023-02-21T00:26:16;101446.11;;;8.75;64.60
61761;BME280;47664;51.660;-0.100;2023-02-21T00:28:47;101449.38;;;8.70;64.36
61761;BME280;47664;51.660;-0.100;2023-02-21T00:31:17;101450.11;;;8.35;64.79
61761;BME280;47664;51.660;-0.100;2023-02-21T00:33:49;101445.54;;;8.93;62.97
61761;BME280;47664;51.660;-0.100;2023-02-21T00:36:21;101443.20;;;9.37;62.11
61761;BME280;47664;51.660;-0.100;2023-02-21T00:38:53;101440.84;;;9.46;61.53
61761;BME280;47664;51.660;-0.100;2023-02-21T00:41:26;101438.37;;;9.37;61.66
61761;BME280;47664;51.660;-0.100;2023-02-21T00:43:58;101435.65;;;8.88;62.49
61761;BME280;47664;51.660;-0.100;2023-02-21T00:46:30;101434.95;;;8.87;63.26
61761;BME280;47664;51.660;-0.100;2023-02-21T00:49:02;101431.69;;;9.22;62.89
61761;BME280;47664;51.660;-0.100;2023-02-21T00:51:34;101426.30;;;9.10;62.27
61761;BME280;47664;51.660;-0.100;2023-02-21T00:54:07;101423.38;;;8.31;62.59
61761;BME280;47664;51.660;-0.100;2023-02-21T00:56:39;101421.62;;;8.42;64.20
61761;BME280;47664;51.660;-0.100;2023-02-21T00:59:11;101421.45;;;7.90;66.14
61761;BME280;47664;51.660;-0.100;2023-02-21T01:01:43;101421.52;;;7.67;67.50
61761;BME280;47664;51.660;-0.100;2023-02-21T01:04:16;101424.69;;;8.11;65.61
61761;BME280;47664;51.660;-0.100;2023-02-21T01:06:49;101425.56;;;8.31;65.81
61761;BME280;47664;51.660;-0.100;2023-02-21T01:09:21;101425.66;;;8.11;66.07
61761;BME280;47664;51.660;-0.100;2023-02-21T01:11:53;101422.42;;;8.53;64.52
61761;BME280;47664;51.660;-0.100;2023-02-21T01:14:25;101416.18;;;8.27;65.04
61761;BME280;47664;51.660;-0.100;2023-02-21T01:16:57;101411.16;;;8.41;64.78
61761;BME280;47664;51.660;-0.100;2023-02-21T01:19:31;101408.68;;;8.20;65.14
61761;BME280;47664;51.660;-0.100;2023-02-21T01:22:03;101405.18;;;7.75;66.76
61761;BME280;47664;51.660;-0.100;2023-02-21T01:24:36;101400.75;;;7.99;66.96
61761;BME280;47664;51.660;-0.100;2023-02-21T01:27:08;101397.22;;;7.16;66.59
61761;BME280;47664;51.660;-0.100;2023-02-21T01:29:40;101393.79;;;7.60;67.62
61761;BME280;47664;51.660;-0.100;2023-02-21T01:32:12;101393.40;;;7.79;66.86
61761;BME280;47664;51.660;-0.100;2023-02-21T01:34:44;101387.77;;;8.08;66.17
61761;BME280;47664;51.660;-0.100;2023-02-21T01:37:16;101383.59;;;8.19;65.23
61761;BME280;47664;51.660;-0.100;2023-02-21T01:39:48;101379.85;;;8.46;64.66
61761;BME280;47664;51.660;-0.100;2023-02-21T01:42:20;101380.15;;;8.64;64.40
61761;BME280;47664;51.660;-0.100;2023-02-21T01:45:05;101378.08;;;8.60;64.54
61761;BME280;47664;51.660;-0.100;2023-02-21T01:47:49;101373.99;;;8.73;63.11
61761;BME280;47664;51.660;-0.100;2023-02-21T01:50:25;101373.94;;;9.04;62.21
61761;BME280;47664;51.660;-0.100;2023-02-21T01:52:59;101374.56;;;9.33;61.48
61761;BME280;47664;51.660;-0.100;2023-02-21T01:55:35;101373.21;;;9.30;61.42
61761;BME280;47664;51.660;-0.100;2023-02-21T01:58:10;101369.91;;;8.61;61.52
61761;BME280;47664;51.660;-0.100;2023-02-21T02:00:42;101368.26;;;9.02;62.28
61761;BME280;47664;51.660;-0.100;2023-02-21T02:03:15;101365.58;;;8.49;63.38
61761;BME280;47664;51.660;-0.100;2023-02-21T02:05:49;101361.34;;;8.53;63.34
61761;BME280;47664;51.660;-0.100;2023-02-21T02:08:25;101359.07;;;8.18;64.26
61761;BME280;47664;51.660;-0.100;2023-02-21T02:11:01;101358.15;;;8.38;64.74
61761;BME280;47664;51.660;-0.100;2023-02-21T02:13:52;101356.91;;;8.15;66.36
61761;BME280;47664;51.660;-0.100;2023-02-21T02:16:31;101352.87;;;8.09;65.64
61761;BME280;47664;51.660;-0.100;2023-02-21T02:19:29;101349.48;;;7.90;64.89
61761;BME280;47664;51.660;-0.100;2023-02-21T02:22:51;101346.01;;;7.55;66.09
61761;BME280;47664;51.660;-0.100;2023-02-21T02:25:36;101345.09;;;7.73;66.74
61761;BME280;47664;51.660;-0.100;2023-02-21T02:28:28;101342.66;;;7.88;66.88
61761;BME280;47664;51.660;-0.100;2023-02-21T02:31:18;101336.01;;;7.59;67.56
61761;BME280;47664;51.660;-0.100;2023-02-21T02:34:46;101337.93;;;7.48;68.57
61761;BME280;47664;51.660;-0.100;2023-02-21T02:37:22;101339.21;;;7.53;67.97
61761;BME280;47664;51.660;-0.100;2023-02-21T02:40:07;101339.57;;;7.30;68.16
61761;BME280;47664;51.660;-0.100;2023-02-21T02:42:44;101337.86;;;7.58;67.78
61761;BME280;47664;51.660;-0.100;2023-02-21T02:45:18;101337.02;;;7.68;66.99
61761;BME280;47664;51.660;-0.100;2023-02-21T02:47:54;101338.96;;;7.80;66.70
61761;BME280;47664;51.660;-0.100;2023-02-21T02:50:30;101334.90;;;7.65;67.68
61761;BME280;47664;51.660;-0.100;2023-02-21T02:53:06;101338.23;;;7.53;67.28
61761;BME280;47664;51.660;-0.100;2023-02-21T02:55:39;101332.68;;;7.94;66.91
61761;BME280;47664;51.660;-0.100;2023-02-21T02:58:13;101331.85;;;7.62;67.07
61761;BME280;47664;51.660;-0.100;2023-02-21T03:00:46;101332.40;;;7.87;66.83
61761;BME280;47664;51.660;-0.100;2023-02-21T03:03:30;101331.18;;;7.81;66.86
61761;BME280;47664;51.660;-0.100;2023-02-21T03:06:12;101326.15;;;6.94;67.20
61761;BME280;47664;51.660;-0.100;2023-02-21T03:08:51;101325.07;;;8.03;66.47
61761;BME280;47664;51.660;-0.100;2023-02-21T03:11:26;101321.74;;;7.86;65.93
61761;BME280;47664;51.660;-0.100;2023-02-21T03:13:58;101315.60;;;8.41;65.14
61761;BME280;47664;51.660;-0.100;2023-02-21T03:16:37;101317.24;;;8.13;65.55
61761;BME280;47664;51.660;-0.100;2023-02-21T03:19:12;101315.83;;;7.58;66.35
61761;BME280;47664;51.660;-0.100;2023-02-21T03:21:50;101312.13;;;8.09;65.67
61761;BME280;47664;51.660;-0.100;2023-02-21T03:24:25;101317.07;;;7.85;65.93
61761;BME280;47664;51.660;-0.100;2023-02-21T03:27:02;101318.96;;;7.84;65.94
61761;BME280;47664;51.660;-0.100;2023-02-21T03:29:36;101319.38;;;7.87;65.67
61761;BME280;47664;51.660;-0.100;2023-02-21T03:32:12;101318.25;;;7.24;65.98
61761;BME280;47664;51.660;-0.100;2023-02-21T03:34:47;101316.59;;;8.17;66.09
61761;BME280;47664;51.660;-0.100;2023-02-21T03:37:20;101314.25;;;7.77;65.97
61761;BME280;47664;51.660;-0.100;2023-02-21T03:39:53;101313.71;;;7.41;67.45
61761;BME280;47664;51.660;-0.100;2023-02-21T03:42:25;101311.44;;;7.84;67.16
61761;BME280;47664;51.660;-0.100;2023-02-21T03:44:57;101309.98;;;7.76;66.54
61761;BME280;47664;51.660;-0.100;2023-02-21T03:47:29;101310.66;;;7.76;66.88
61761;BME280;47664;51.660;-0.100;2023-02-21T03:50:02;101308.75;;;7.69;67.15
61761;BME280;47664;51.660;-0.100;2023-02-21T03:52:35;101310.93;;;7.54;67.54
61761;BME280;47664;51.660;-0.100;2023-02-21T03:55:07;101308.31;;;7.23;67.97
61761;BME280;47664;51.660;-0.100;2023-02-21T03:57:39;101306.77;;;7.24;67.83
61761;BME280;47664;51.660;-0.100;2023-02-21T04:00:13;101304.12;;;7.11;67.78
61761;BME280;47664;51.660;-0.100;2023-02-21T04:02:44;101301.79;;;7.09;69.99
61761;BME280;47664;51.660;-0.100;2023-02-21T04:05:17;101296.98;;;7.04;69.46
61761;BME280;47664;51.660;-0.100;2023-02-21T04:07:49;101298.18;;;7.08;69.43
61761;BME280;47664;51.660;-0.100;2023-02-21T04:10:21;101296.78;;;7.46;68.08
61761;BME280;47664;51.660;-0.100;2023-02-21T04:12:53;101293.40;;;7.80;67.02
61761;BME280;47664;51.660;-0.100;2023-02-21T04:15:25;101289.58;;;8.04;65.76
61761;BME280;47664;51.660;-0.100;2023-02-21T04:17:57;101283.43;;;8.24;64.94
61761;BME280;47664;51.660;-0.100;2023-02-21T04:20:30;101287.54;;;8.72;63.77
61761;BME280;47664;51.660;-0.100;2023-02-21T04:23:03;101293.39;;;8.51;62.94
61761;BME280;47664;51.660;-0.100;2023-02-21T04:25:35;101295.37;;;8.60;62.73
61761;BME280;47664;51.660;-0.100;2023-02-21T04:28:07;101293.77;;;8.26;63.04
61761;BME280;47664;51.660;-0.100;2023-02-21T04:30:39;101293.76;;;8.89;63.13
61761;BME280;47664;51.660;-0.100;2023-02-21T04:33:11;101294.44;;;8.20;63.30
61761;BME280;47664;51.660;-0.100;2023-02-21T04:35:43;101296.98;;;8.76;62.93
61761;BME280;47664;51.660;-0.100;2023-02-21T04:38:15;101292.84;;;8.15;62.97
61761;BME280;47664;51.660;-0.100;2023-02-21T04:40:47;101290.74;;;8.66;63.30
61761;BME280;47664;51.660;-0.100;2023-02-21T04:43:20;101292.56;;;8.33;62.73
61761;BME280;47664;51.660;-0.100;2023-02-21T04:45:52;101291.28;;;8.64;62.38
61761;BME280;47664;51.660;-0.100;2023-02-21T04:48:24;101287.42;;;8.41;63.47
61761;BME280;47664;51.660;-0.100;2023-02-21T04:50:57;101292.26;;;8.07;64.08
61761;BME280;47664;51.660;-0.100;2023-02-21T04:53:30;101288.69;;;8.03;64.25
61761;BME280;47664;51.660;-0.100;2023-02-21T04:56:02;101290.53;;;8.02;64.93
61761;BME280;47664;51.660;-0.100;2023-02-21T04:58:35;101283.43;;;8.13;64.29
61761;BME280;47664;51.660;-0.100;2023-02-21T05:01:07;101282.91;;;8.14;63.85
61761;BME280;47664;51.660;-0.100;2023-02-21T05:03:41;101284.70;;;8.48;63.16
61761;BME280;47664;51.660;-0.100;2023-02-21T05:06:16;101283.21;;;8.30;62.72
61761;BME280;47664;51.660;-0.100;2023-02-21T05:08:48;101285.81;;;8.38;63.84
61761;BME280;47664;51.660;-0.100;2023-02-21T05:11:20;101287.06;;;8.17;63.00
61761;BME280;47664;51.660;-0.100;2023-02-21T05:13:52;101284.59;;;8.65;63.05
61761;BME280;47664;51.660;-0.100;2023-02-21T05:16:25;101283.58;;;8.07;64.00
61761;BME280;47664;51.660;-0.100;2023-02-21T05:18:58;101280.51;;;8.47;63.42
61761;BME280;47664;51.660;-0.100;2023-02-21T05:21:33;101285.12;;;8.12;64.08
61761;BME280;47664;51.660;-0.100;2023-02-21T05:24:05;101279.21;;;7.49;64.23
61761;BME280;47664;51.660;-0.100;2023-02-21T05:26:39;101277.24;;;8.68;62.72
61761;BME280;47664;51.660;-0.100;2023-02-21T05:29:11;101281.24;;;8.20;62.75
61761;BME280;47664;51.660;-0.100;2023-02-21T05:31:43;101277.68;;;8.62;61.96
61761;BME280;47664;51.660;-0.100;2023-02-21T05:34:16;101278.95;;;8.25;61.61
61761;BME280;47664;51.660;-0.100;2023-02-21T05:36:47;101276.98;;;8.45;61.98
61761;BME280;47664;51.660;-0.100;2023-02-21T05:39:20;101274.00;;;8.53;62.01
61761;BME280;47664;51.660;-0.100;2023-02-21T05:41:52;101275.55;;;8.62;62.51
61761;BME280;47664;51.660;-0.100;2023-02-21T05:44:24;101272.31;;;8.89;61.44
61761;BME280;47664;51.660;-0.100;2023-02-21T05:46:57;101271.90;;;8.92;61.32
61761;BME280;47664;51.660;-0.100;2023-02-21T05:49:29;101271.60;;;8.97;60.99
61761;BME280;47664;51.660;-0.100;2023-02-21T05:52:02;101271.32;;;8.87;61.09
61761;BME280;47664;51.660;-0.100;2023-02-21T05:54:34;101271.90;;;8.55;61.01
61761;BME280;47664;51.660;-0.100;2023-02-21T05:57:07;101268.18;;;8.50;60.63
61761;BME280;47664;51.660;-0.100;2023-02-21T05:59:39;101267.88;;;8.95;60.33
61761;BME280;47664;51.660;-0.100;2023-02-21T06:02:11;101267.20;;;8.99;59.87
61761;BME280;47664;51.660;-0.100;2023-02-21T06:04:43;101262.83;;;8.97;59.60
61761;BME280;47664;51.660;-0.100;2023-02-21T06:07:15;101263.72;;;8.52;60.51
61761;BME280;47664;51.660;-0.100;2023-02-21T06:09:48;101265.19;;;8.98;60.40
61761;BME280;47664;51.660;-0.100;2023-02-21T06:12:20;101268.72;;;9.11;60.29
61761;BME280;47664;51.660;-0.100;2023-02-21T06:14:52;101270.19;;;9.07;59.55
61761;BME280;47664;51.660;-0.100;2023-02-21T06:17:24;101272.16;;;9.35;59.00
61761;BME280;47664;51.660;-0.100;2023-02-21T06:19:56;101270.18;;;9.43;58.59
61761;BME280;47664;51.660;-0.100;2023-02-21T06:22:28;101270.88;;;9.28;58.61
61761;BME280;47664;51.660;-0.100;2023-02-21T06:25:01;101272.26;;;9.29;58.85
61761;BME280;47664;51.660;-0.100;2023-02-21T06:27:34;101272.63;;;9.30;58.86
61761;BME280;47664;51.660;-0.100;2023-02-21T06:30:07;101272.41;;;8.79;58.89
61761;BME280;47664;51.660;-0.100;2023-02-21T06:32:39;101264.94;;;9.49;58.27
61761;BME280;47664;51.660;-0.100;2023-02-21T06:35:13;101261.96;;;8.66;58.34
61761;BME280;47664;51.660;-0.100;2023-02-21T06:37:44;101262.53;;;9.38;58.01
61761;BME280;47664;51.660;-0.100;2023-02-21T06:40:17;101265.62;;;9.40;57.68
61761;BME280;47664;51.660;-0.100;2023-02-21T06:42:49;101270.26;;;9.50;58.03
61761;BME280;47664;51.660;-0.100;2023-02-21T06:45:21;101270.88;;;9.34;57.99
61761;BME280;47664;51.660;-0.100;2023-02-21T06:47:53;101269.37;;;8.81;59.10
61761;BME280;47664;51.660;-0.100;2023-02-21T06:50:25;101270.12;;;9.32;58.74
61761;BME280;47664;51.660;-0.100;2023-02-21T06:52:57;101270.21;;;9.44;58.35
61761;BME280;47664;51.660;-0.100;2023-02-21T06:55:30;101268.60;;;9.16;58.38
61761;BME280;47664;51.660;-0.100;2023-02-21T06:58:02;101264.94;;;9.05;58.17
61761;BME280;47664;51.660;-0.100;2023-02-21T07:00:34;101266.92;;;9.05;57.93
61761;BME280;47664;51.660;-0.100;2023-02-21T07:03:06;101268.67;;;8.93;57.65
61761;BME280;47664;51.660;-0.100;2023-02-21T07:05:38;101272.34;;;9.26;57.82
61761;BME280;47664;51.660;-0.100;2023-02-21T07:08:10;101272.68;;;8.59;57.54
61761;BME280;47664;51.660;-0.100;2023-02-21T07:10:42;101271.72;;;9.26;57.72
61761;BME280;47664;51.660;-0.100;2023-02-21T07:13:14;101276.59;;;9.06;57.56
61761;BME280;47664;51.660;-0.100;2023-02-21T07:15:47;101270.35;;;9.35;57.46
61761;BME280;47664;51.660;-0.100;2023-02-21T07:18:19;101269.15;;;9.23;57.37
61761;BME280;47664;51.660;-0.100;2023-02-21T07:20:51;101267.58;;;9.41;57.01
61761;BME280;47664;51.660;-0.100;2023-02-21T07:23:23;101264.32;;;9.25;57.10
61761;BME280;47664;51.660;-0.100;2023-02-21T07:25:55;101262.60;;;9.53;57.23
61761;BME280;47664;51.660;-0.100;2023-02-21T07:28:27;101263.35;;;9.43;57.28
61761;BME280;47664;51.660;-0.100;2023-02-21T07:31:00;101264.14;;;9.62;57.12
61761;BME280;47664;51.660;-0.100;2023-02-21T07:33:32;101265.51;;;9.41;56.73
61761;BME280;47664;51.660;-0.100;2023-02-21T07:36:05;101265.98;;;9.39;56.89
61761;BME280;47664;51.660;-0.100;2023-02-21T07:38:37;101268.86;;;9.43;56.93
61761;BME280;47664;51.660;-0.100;2023-02-21T07:41:10;101268.67;;;9.06;57.47
61761;BME280;47664;51.660;-0.100;2023-02-21T07:43:42;101270.64;;;9.23;57.02
61761;BME280;47664;51.660;-0.100;2023-02-21T07:46:15;101276.50;;;9.01;56.82
61761;BME280;47664;51.660;-0.100;2023-02-21T07:48:48;101275.73;;;9.47;57.19
61761;BME280;47664;51.660;-0.100;2023-02-21T07:51:19;101277.31;;;9.27;57.23
61761;BME280;47664;51.660;-0.100;2023-02-21T07:53:51;101281.43;;;9.25;57.50
61761;BME280;47664;51.660;-0.100;2023-02-21T07:56:24;101283.84;;;8.90;57.73
61761;BME280;47664;51.660;-0.100;2023-02-21T07:58:56;101282.68;;;9.33;57.69
61761;BME280;47664;51.660;-0.100;2023-02-21T08:01:29;101282.50;;;9.33;57.48
61761;BME280;47664;51.660;-0.100;2023-02-21T08:04:03;101280.70;;;9.58;57.41
61761;BME280;47664;51.660;-0.100;2023-02-21T08:06:37;101279.90;;;8.95;58.53
61761;BME280;47664;51.660;-0.100;2023-02-21T08:09:09;101278.07;;;8.23;57.84
61761;BME280;47664;51.660;-0.100;2023-02-21T08:11:41;101276.39;;;9.10;57.56
61761;BME280;47664;51.660;-0.100;2023-02-21T08:14:14;101278.56;;;8.61;57.87
61761;BME280;47664;51.660;-0.100;2023-02-21T08:16:46;101278.99;;;8.94;58.01
61761;BME280;47664;51.660;-0.100;2023-02-21T08:19:18;101280.69;;;9.23;57.62
61761;BME280;47664;51.660;-0.100;2023-02-21T08:21:50;101280.98;;;9.13;57.12
61761;BME280;47664;51.660;-0.100;2023-02-21T08:24:23;101277.56;;;9.58;56.56
61761;BME280;47664;51.660;-0.100;2023-02-21T08:26:55;101281.32;;;9.18;56.73
61761;BME280;47664;51.660;-0.100;2023-02-21T08:29:28;101283.19;;;8.79;57.20
61761;BME280;47664;51.660;-0.100;2023-02-21T08:32:00;101283.53;;;8.94;58.40
61761;BME280;47664;51.660;-0.100;2023-02-21T08:34:32;101285.92;;;8.96;57.82
61761;BME280;47664;51.660;-0.100;2023-02-21T08:37:04;101286.30;;;9.37;57.32
61761;BME280;47664;51.660;-0.100;2023-02-21T08:39:36;101284.79;;;8.68;57.93
61761;BME280;47664;51.660;-0.100;2023-02-21T08:42:10;101277.55;;;7.82;59.23
61761;BME280;47664;51.660;-0.100;2023-02-21T08:44:43;101279.26;;;8.59;58.60
61761;BME280;47664;51.660;-0.100;2023-02-21T08:47:15;101271.04;;;8.80;56.75
61761;BME280;47664;51.660;-0.100;2023-02-21T08:49:48;101270.81;;;9.16;56.66
61761;BME280;47664;51.660;-0.100;2023-02-21T08:52:25;101271.61;;;9.18;56.71
61761;BME280;47664;51.660;-0.100;2023-02-21T08:56:43;101270.86;;;7.70;56.16
61761;BME280;47664;51.660;-0.100;2023-02-21T08:59:16;101262.65;;;8.10;54.38
61761;BME280;47664;51.660;-0.100;2023-02-21T09:01:49;101262.55;;;8.74;54.34
61761;BME280;47664;51.660;-0.100;2023-02-21T09:04:21;101266.60;;;9.09;55.14
61761;BME280;47664;51.660;-0.100;2023-02-21T09:06:55;101267.14;;;8.86;55.39
61761;BME280;47664;51.660;-0.100;2023-02-21T09:09:27;101266.98;;;9.68;55.41
61761;BME280;47664;51.660;-0.100;2023-02-21T09:11:59;101268.42;;;9.40;54.96
61761;BME280;47664;51.660;-0.100;2023-02-21T09:14:31;101266.03;;;9.69;54.59
61761;BME280;47664;51.660;-0.100;2023-02-21T09:17:04;101265.38;;;9.60;54.58
61761;BME280;47664;51.660;-0.100;2023-02-21T09:19:37;101267.26;;;9.72;54.90
61761;BME280;47664;51.660;-0.100;2023-02-21T09:22:11;101264.52;;;9.66;54.24
61761;BME280;47664;51.660;-0.100;2023-02-21T09:24:45;101265.82;;;9.43;54.82
61761;BME280;47664;51.660;-0.100;2023-02-21T09:27:18;101267.41;;;9.39;55.85
61761;BME280;47664;51.660;-0.100;2023-02-21T09:29:50;101265.55;;;9.56;55.71
61761;BME280;47664;51.660;-0.100;2023-02-21T09:32:22;101264.09;;;9.53;55.65
61761;BME280;47664;51.660;-0.100;2023-02-21T09:34:56;101261.23;;;9.31;56.48
61761;BME280;47664;51.660;-0.100;2023-02-21T09:37:28;101261.87;;;9.34;56.35
61761;BME280;47664;51.660;-0.100;2023-02-21T09:40:00;101261.22;;;9.28;56.71
61761;BME280;47664;51.660;-0.100;2023-02-21T09:42:34;101265.51;;;9.11;57.33
61761;BME280;47664;51.660;-0.100;2023-02-21T09:45:09;101259.95;;;8.90;57.90
61761;BME280;47664;51.660;-0.100;2023-02-21T09:47:44;101264.31;;;8.96;57.92
61761;BME280;47664;51.660;-0.100;2023-02-21T09:50:18;101260.51;;;9.07;57.38
61761;BME280;47664;51.660;-0.100;2023-02-21T09:52:52;101262.36;;;8.85;57.16
61761;BME280;47664;51.660;-0.100;2023-02-21T09:55:26;101262.37;;;9.52;56.03
61761;BME280;47664;51.660;-0.100;2023-02-21T09:57:59;101257.97;;;9.41;55.72
61761;BME280;47664;51.660;-0.100;2023-02-21T10:00:35;101257.44;;;9.45;56.77
61761;BME280;47664;51.660;-0.100;2023-02-21T10:03:14;101254.73;;;9.13;57.21
61761;BME280;47664;51.660;-0.100;2023-02-21T10:05:55;101252.17;;;9.24;56.94
61761;BME280;47664;51.660;-0.100;2023-02-21T10:08:32;101252.44;;;9.00;56.90
61761;BME280;47664;51.660;-0.100;2023-02-21T10:12:53;101243.71;;;9.87;56.82
61761;BME280;47664;51.660;-0.100;2023-02-21T10:15:34;101243.15;;;9.48;55.88
61761;BME280;47664;51.660;-0.100;2023-02-21T10:18:21;101238.02;;;9.31;55.58
61761;BME280;47664;51.660;-0.100;2023-02-21T10:20:58;101235.01;;;9.58;55.26
61761;BME280;47664;51.660;-0.100;2023-02-21T10:23:34;101234.05;;;10.08;55.02
61761;BME280;47664;51.660;-0.100;2023-02-21T10:26:10;101236.45;;;9.90;54.89
61761;BME280;47664;51.660;-0.100;2023-02-21T10:28:44;101239.84;;;10.15;55.01
61761;BME280;47664;51.660;-0.100;2023-02-21T10:31:15;101233.19;;;9.88;55.23
61761;BME280;47664;51.660;-0.100;2023-02-21T10:33:50;101236.54;;;9.48;55.90
61761;BME280;47664;51.660;-0.100;2023-02-21T10:36:23;101233.27;;;9.40;56.56
61761;BME280;47664;51.660;-0.100;2023-02-21T10:38:55;101231.25;;;9.31;57.06
61761;BME280;47664;51.660;-0.100;2023-02-21T10:41:33;101228.72;;;9.84;56.74
61761;BME280;47664;51.660;-0.100;2023-02-21T10:44:09;101231.05;;;9.59;56.03
61761;BME280;47664;51.660;-0.100;2023-02-21T10:46:44;101230.74;;;9.43;57.24
61761;BME280;47664;51.660;-0.100;2023-02-21T10:49:21;101222.94;;;9.41;57.13
61761;BME280;47664;51.660;-0.100;2023-02-21T10:52:03;101220.37;;;9.37;56.09
61761;BME280;47664;51.660;-0.100;2023-02-21T10:54:36;101221.10;;;10.25;55.19
61761;BME280;47664;51.660;-0.100;2023-02-21T10:57:06;101216.90;;;9.58;55.79
61761;BME280;47664;51.660;-0.100;2023-02-21T10:59:40;101218.31;;;9.84;55.46
61761;BME280;47664;51.660;-0.100;2023-02-21T11:02:29;101217.17;;;9.63;56.97
61761;BME280;47664;51.660;-0.100;2023-02-21T11:05:08;101217.36;;;9.35;56.81
61761;BME280;47664;51.660;-0.100;2023-02-21T11:07:54;101216.10;;;9.61;56.51
61761;BME280;47664;51.660;-0.100;2023-02-21T11:10:27;101216.73;;;9.05;57.17
61761;BME280;47664;51.660;-0.100;2023-02-21T11:13:27;101217.56;;;9.32;57.04
61761;BME280;47664;51.660;-0.100;2023-02-21T11:16:10;101223.22;;;9.57;56.65
61761;BME280;47664;51.660;-0.100;2023-02-21T11:18:43;101221.11;;;9.65;56.48
61761;BME280;47664;51.660;-0.100;2023-02-21T11:21:17;101220.91;;;9.82;56.90
61761;BME280;47664;51.660;-0.100;2023-02-21T11:23:53;101216.43;;;9.35;56.81
61761;BME280;47664;51.660;-0.100;2023-02-21T11:26:27;101214.54;;;10.11;56.56
61761;BME280;47664;51.660;-0.100;2023-02-21T11:29:07;101212.65;;;9.54;56.02
61761;BME280;47664;51.660;-0.100;2023-02-21T11:31:41;101204.68;;;9.80;56.84
61761;BME280;47664;51.660;-0.100;2023-02-21T11:34:11;101203.19;;;9.87;56.74
61761;BME280;47664;51.660;-0.100;2023-02-21T11:36:46;101199.07;;;9.60;56.80
61761;BME280;47664;51.660;-0.100;2023-02-21T11:39:21;101196.05;;;10.03;57.35
61761;BME280;47664;51.660;-0.100;2023-02-21T11:41:55;101194.72;;;9.78;56.71
61761;BME280;47664;51.660;-0.100;2023-02-21T11:44:30;101188.29;;;9.75;56.09
61761;BME280;47664;51.660;-0.100;2023-02-21T11:47:07;101190.11;;;10.01;56.20
61761;BME280;47664;51.660;-0.100;2023-02-21T11:49:47;101189.75;;;10.18;55.97
61761;BME280;47664;51.660;-0.100;2023-02-21T11:52:20;101185.29;;;10.11;56.42
61761;BME280;47664;51.660;-0.100;2023-02-21T11:54:53;101177.63;;;9.86;56.95
61761;BME280;47664;51.660;-0.100;2023-02-21T11:57:26;101175.75;;;9.78;57.12
61761;BME280;47664;51.660;-0.100;2023-02-21T12:00:02;101168.95;;;9.51;57.94
61761;BME280;47664;51.660;-0.100;2023-02-21T12:02:48;101167.91;;;9.08;59.47
61761;BME280;47664;51.660;-0.100;2023-02-21T12:05:29;101169.38;;;8.58;60.85
61761;BME280;47664;51.660;-0.100;2023-02-21T12:08:13;101159.38;;;9.25;59.73
61761;BME280;47664;51.660;-0.100;2023-02-21T12:10:53;101154.25;;;9.18;58.50
61761;BME280;47664;51.660;-0.100;2023-02-21T12:13:30;101149.99;;;9.86;58.21
61761;BME280;47664;51.660;-0.100;2023-02-21T12:16:13;101147.71;;;9.43;58.75
61761;BME280;47664;51.660;-0.100;2023-02-21T12:18:57;101144.32;;;8.86;58.46
61761;BME280;47664;51.660;-0.100;2023-02-21T12:21:54;101136.58;;;9.24;58.40
61761;BME280;47664;51.660;-0.100;2023-02-21T12:24:38;101128.49;;;9.44;59.21
61761;BME280;47664;51.660;-0.100;2023-02-21T12:27:16;101124.37;;;9.23;59.95
61761;BME280;47664;51.660;-0.100;2023-02-21T12:29:57;101117.02;;;9.65;58.35
61761;BME280;47664;51.660;-0.100;2023-02-21T12:32:42;101108.46;;;10.27;57.03
61761;BME280;47664;51.660;-0.100;2023-02-21T12:35:35;101105.68;;;10.00;57.73
61761;BME280;47664;51.660;-0.100;2023-02-21T12:38:13;101100.59;;;10.34;57.18
61761;BME280;47664;51.660;-0.100;2023-02-21T12:40:51;101096.32;;;9.47;57.46
61761;BME280;47664;51.660;-0.100;2023-02-21T12:43:33;101095.33;;;10.24;57.86
61761;BME280;47664;51.660;-0.100;2023-02-21T12:46:08;101093.09;;;10.01;57.64
61761;BME280;47664;51.660;-0.100;2023-02-21T12:48:43;101089.96;;;10.27;56.43
61761;BME280;47664;51.660;-0.100;2023-02-21T12:51:18;101084.45;;;10.49;56.43
61761;BME280;47664;51.660;-0.100;2023-02-21T12:53:50;101081.88;;;10.12;56.51
61761;BME280;47664;51.660;-0.100;2023-02-21T12:56:27;101079.40;;;10.30;56.84
61761;BME280;47664;51.660;-0.100;2023-02-21T12:59:07;101079.03;;;9.82;56.23
61761;BME280;47664;51.660;-0.100;2023-02-21T13:01:42;101076.46;;;10.14;56.37
61761;BME280;47664;51.660;-0.100;2023-02-21T13:04:23;101071.79;;;10.56;56.61
61761;BME280;47664;51.660;-0.100;2023-02-21T13:06:57;101068.35;;;10.06;57.02
61761;BME280;47664;51.660;-0.100;2023-02-21T13:09:31;101065.24;;;10.32;56.76
61761;BME280;47664;51.660;-0.100;2023-02-21T13:12:05;101058.69;;;10.72;55.39
61761;BME280;47664;51.660;-0.100;2023-02-21T13:14:41;101054.45;;;10.63;55.78
61761;BME280;47664;51.660;-0.100;2023-02-21T13:17:17;101049.66;;;10.76;55.85
61761;BME280;47664;51.660;-0.100;2023-02-21T13:19:53;101045.12;;;10.36;55.72
61761;BME280;47664;51.660;-0.100;2023-02-21T13:24:47;101043.81;;;10.86;55.89
61761;BME280;47664;51.660;-0.100;2023-02-21T13:27:45;101030.05;;;10.77;55.27
61761;BME280;47664;51.660;-0.100;2023-02-21T13:30:20;101023.76;;;10.75;55.68
61761;BME280;47664;51.660;-0.100;2023-02-21T13:32:56;101026.20;;;9.86;56.70
61761;BME280;47664;51.660;-0.100;2023-02-21T13:35:30;101028.33;;;10.10;57.58